sensor_id;sensor_type;location;lat;lon;timestamp;temperature;humidity
19152;DHT22;9708;53.114;9.388;2023-12-28T00:01:46;8.30;99.90
19152;DHT22;9708;53.114;9.388;2023-12-28T00:04:14;8.30;99.90
19152;DHT22;9708;53.114;9.388;2023-12-28T00:06:41;8.40;99.90
19152;DHT22;9708;53.114;9.388;2023-12-28T00:09:08;8.30;99.90
19152;DHT22;9708;53.114;9.388;2023-12-28T00:11:36;8.40;99.90
19152;DHT22;9708;53.114;9.388;2023-12-28T00:14:03;8.40;99.90
19152;DHT22;9708;53.114;9.388;2023-12-28T00:16:30;8.40;99.90
19152;DHT22;9708;53.114;9.388;2023-12-28T00:18:59;8.50;99.90
19152;DHT22;9708;53.114;9.388;2023-12-28T00:21:28;8.60;99.90
19152;DHT22;9708;53.114;9.388;2023-12-28T00:23:55;8.50;99.90
19152;DHT22;9708;53.114;9.388;2023-12-28T00:26:22;8.50;99.90
19152;DHT22;9708;53.114;9.388;2023-12-28T00:28:49;8.40;99.90
19152;DHT22;9708;53.114;9.388;2023-12-28T00:31:16;8.30;99.90
19152;DHT22;9708;53.114;9.388;2023-12-28T00:33:43;8.20;99.90
19152;DHT22;9708;53.114;9.388;2023-12-28T00:36:10;8.20;99.90
19152;DHT22;9708;53.114;9.388;2023-12-28T00:38:38;8.30;99.90
19152;DHT22;9708;53.114;9.388;2023-12-28T00:41:05;8.20;99.90
19152;DHT22;9708;53.114;9.388;2023-12-28T00:43:32;8.20;99.90
19152;DHT22;9708;53.114;9.388;2023-12-28T00:45:59;8.20;99.90
19152;DHT22;9708;53.114;9.388;2023-12-28T00:48:26;8.20;99.90
19152;DHT22;9708;53.114;9.388;2023-12-28T00:50:53;8.20;99.90
19152;DHT22;9708;53.114;9.388;2023-12-28T00:53:20;8.20;99.90
19152;DHT22;9708;53.114;9.388;2023-12-28T00:55:49;8.20;99.90
19152;DHT22;9708;53.114;9.388;2023-12-28T00:58:15;8.30;99.90
19152;DHT22;9708;53.114;9.388;2023-12-28T01:00:42;8.30;99.90
19152;DHT22;9708;53.114;9.388;2023-12-28T01:03:09;8.30;99.90
19152;DHT22;9708;53.114;9.388;2023-12-28T01:05:36;8.30;99.90
19152;DHT22;9708;53.114;9.388;2023-12-28T01:08:03;8.30;99.90
19152;DHT22;9708;53.114;9.388;2023-12-28T01:10:30;8.30;99.90
19152;DHT22;9708;53.114;9.388;2023-12-28T01:13:00;8.30;99.90
19152;DHT22;9708;53.114;9.388;2023-12-28T01:15:27;8.30;99.90
19152;DHT22;9708;53.114;9.388;2023-12-28T01:17:53;8.30;99.90
19152;DHT22;9708;53.114;9.388;2023-12-28T01:20:20;8.30;99.90
19152;DHT22;9708;53.114;9.388;2023-12-28T01:22:47;8.30;99.90
19152;DHT22;9708;53.114;9.388;2023-12-28T01:25:15;8.30;99.90
19152;DHT22;9708;53.114;9.388;2023-12-28T01:27:42;8.30;99.90
19152;DHT22;9708;53.114;9.388;2023-12-28T01:30:11;8.30;99.90
19152;DHT22;9708;53.114;9.388;2023-12-28T01:32:37;8.30;99.90
19152;DHT22;9708;53.114;9.388;2023-12-28T01:35:05;8.30;99.90
19152;DHT22;9708;53.114;9.388;2023-12-28T01:37:32;8.30;99.90
19152;DHT22;9708;53.114;9.388;2023-12-28T01:39:59;8.30;99.90
19152;DHT22;9708;53.114;9.388;2023-12-28T01:42:26;8.30;99.90
19152;DHT22;9708;53.114;9.388;2023-12-28T01:44:56;8.30;99.90
19152;DHT22;9708;53.114;9.388;2023-12-28T01:47:24;8.30;99.90
19152;DHT22;9708;53.114;9.388;2023-12-28T01:49:51;8.40;99.90
19152;DHT22;9708;53.114;9.388;2023-12-28T01:52:19;8.30;99.90
19152;DHT22;9708;53.114;9.388;2023-12-28T01:54:46;8.30;99.90
19152;DHT22;9708;53.114;9.388;2023-12-28T01:57:14;8.40;99.90
19152;DHT22;9708;53.114;9.388;2023-12-28T01:59:41;8.40;99.90
19152;DHT22;9708;53.114;9.388;2023-12-28T02:02:08;8.40;99.90
19152;DHT22;9708;53.114;9.388;2023-12-28T02:04:37;8.50;99.90
19152;DHT22;9708;53.114;9.388;2023-12-28T02:07:05;8.40;99.90
19152;DHT22;9708;53.114;9.388;2023-12-28T02:09:32;8.50;99.90
19152;DHT22;9708;53.114;9.388;2023-12-28T02:11:58;8.50;99.90
19152;DHT22;9708;53.114;9.388;2023-12-28T02:14:25;8.50;99.90
19152;DHT22;9708;53.114;9.388;2023-12-28T02:16:59;8.50;99.90
19152;DHT22;9708;53.114;9.388;2023-12-28T02:19:32;8.50;99.90
19152;DHT22;9708;53.114;9.388;2023-12-28T02:22:04;8.50;99.90
19152;DHT22;9708;53.114;9.388;2023-12-28T02:24:32;8.50;99.90
19152;DHT22;9708;53.114;9.388;2023-12-28T02:27:00;8.50;99.90
19152;DHT22;9708;53.114;9.388;2023-12-28T02:29:28;8.50;99.90
19152;DHT22;9708;53.114;9.388;2023-12-28T02:32:00;8.50;99.90
19152;DHT22;9708;53.114;9.388;2023-12-28T02:34:37;8.50;99.90
19152;DHT22;9708;53.114;9.388;2023-12-28T02:37:05;8.50;99.90
19152;DHT22;9708;53.114;9.388;2023-12-28T02:39:32;8.40;99.90
19152;DHT22;9708;53.114;9.388;2023-12-28T02:42:01;8.40;99.90
19152;DHT22;9708;53.114;9.388;2023-12-28T02:44:28;8.40;99.90
19152;DHT22;9708;53.114;9.388;2023-12-28T02:46:55;8.30;99.90
19152;DHT22;9708;53.114;9.388;2023-12-28T02:49:22;8.30;99.90
19152;DHT22;9708;53.114;9.388;2023-12-28T02:51:49;8.30;99.90
19152;DHT22;9708;53.114;9.388;2023-12-28T02:54:16;8.30;99.90
19152;DHT22;9708;53.114;9.388;2023-12-28T02:56:42;8.30;99.90
19152;DHT22;9708;53.114;9.388;2023-12-28T02:59:11;8.30;99.90
19152;DHT22;9708;53.114;9.388;2023-12-28T03:01:37;8.20;99.90
19152;DHT22;9708;53.114;9.388;2023-12-28T03:04:05;8.20;99.90
19152;DHT22;9708;53.114;9.388;2023-12-28T03:06:32;8.20;99.90
19152;DHT22;9708;53.114;9.388;2023-12-28T03:09:01;8.20;99.90
19152;DHT22;9708;53.114;9.388;2023-12-28T03:11:28;8.20;99.90
19152;DHT22;9708;53.114;9.388;2023-12-28T03:13:54;8.20;99.90
19152;DHT22;9708;53.114;9.388;2023-12-28T03:16:23;8.20;99.90
19152;DHT22;9708;53.114;9.388;2023-12-28T03:18:49;8.20;99.90
19152;DHT22;9708;53.114;9.388;2023-12-28T03:21:16;8.20;99.90
19152;DHT22;9708;53.114;9.388;2023-12-28T03:23:43;8.10;99.90
19152;DHT22;9708;53.114;9.388;2023-12-28T03:26:10;8.10;99.90
19152;DHT22;9708;53.114;9.388;2023-12-28T03:28:37;8.10;99.90
19152;DHT22;9708;53.114;9.388;2023-12-28T03:31:04;8.00;99.90
19152;DHT22;9708;53.114;9.388;2023-12-28T03:33:32;8.00;99.90
19152;DHT22;9708;53.114;9.388;2023-12-28T03:35:59;8.00;99.90
19152;DHT22;9708;53.114;9.388;2023-12-28T03:38:27;8.00;99.90
19152;DHT22;9708;53.114;9.388;2023-12-28T03:40:54;8.00;99.90
19152;DHT22;9708;53.114;9.388;2023-12-28T03:43:21;8.00;99.90
19152;DHT22;9708;53.114;9.388;2023-12-28T03:45:47;8.00;99.90
19152;DHT22;9708;53.114;9.388;2023-12-28T03:48:14;8.00;99.90
19152;DHT22;9708;53.114;9.388;2023-12-28T03:50:42;8.10;99.90
19152;DHT22;9708;53.114;9.388;2023-12-28T03:53:09;8.10;99.90
19152;DHT22;9708;53.114;9.388;2023-12-28T03:55:36;8.10;99.90
19152;DHT22;9708;53.114;9.388;2023-12-28T03:58:03;8.10;99.90
19152;DHT22;9708;53.114;9.388;2023-12-28T04:00:30;8.20;99.90
19152;DHT22;9708;53.114;9.388;2023-12-28T04:02:57;8.30;99.90
19152;DHT22;9708;53.114;9.388;2023-12-28T04:05:25;8.30;99.90
19152;DHT22;9708;53.114;9.388;2023-12-28T04:07:53;8.40;99.90
19152;DHT22;9708;53.114;9.388;2023-12-28T04:12:51;8.30;99.90
19152;DHT22;9708;53.114;9.388;2023-12-28T04:15:20;8.40;99.90
19152;DHT22;9708;53.114;9.388;2023-12-28T04:17:47;8.40;99.90
19152;DHT22;9708;53.114;9.388;2023-12-28T04:20:14;8.40;99.90
19152;DHT22;9708;53.114;9.388;2023-12-28T04:22:41;8.40;99.90
19152;DHT22;9708;53.114;9.388;2023-12-28T04:25:11;8.40;99.90
19152;DHT22;9708;53.114;9.388;2023-12-28T04:27:38;8.50;99.90
19152;DHT22;9708;53.114;9.388;2023-12-28T04:30:06;8.40;99.90
19152;DHT22;9708;53.114;9.388;2023-12-28T04:32:33;8.50;99.90
19152;DHT22;9708;53.114;9.388;2023-12-28T04:35:00;8.50;99.90
19152;DHT22;9708;53.114;9.388;2023-12-28T04:37:29;8.60;99.90
19152;DHT22;9708;53.114;9.388;2023-12-28T04:39:56;8.50;99.90
19152;DHT22;9708;53.114;9.388;2023-12-28T04:42:24;8.50;99.90
19152;DHT22;9708;53.114;9.388;2023-12-28T04:44:51;8.60;99.90
19152;DHT22;9708;53.114;9.388;2023-12-28T04:47:18;8.60;99.90
19152;DHT22;9708;53.114;9.388;2023-12-28T04:49:45;8.60;99.90
19152;DHT22;9708;53.114;9.388;2023-12-28T04:52:12;8.50;99.90
19152;DHT22;9708;53.114;9.388;2023-12-28T04:54:40;8.50;99.90
19152;DHT22;9708;53.114;9.388;2023-12-28T04:57:07;8.60;99.90
19152;DHT22;9708;53.114;9.388;2023-12-28T04:59:39;8.60;99.90
19152;DHT22;9708;53.114;9.388;2023-12-28T05:02:06;8.60;99.90
19152;DHT22;9708;53.114;9.388;2023-12-28T05:04:33;8.60;99.90
19152;DHT22;9708;53.114;9.388;2023-12-28T05:07:00;8.60;99.90
19152;DHT22;9708;53.114;9.388;2023-12-28T05:09:27;8.60;99.90
19152;DHT22;9708;53.114;9.388;2023-12-28T05:11:53;8.60;99.90
19152;DHT22;9708;53.114;9.388;2023-12-28T05:14:20;8.60;99.90
19152;DHT22;9708;53.114;9.388;2023-12-28T05:16:49;8.60;99.90
19152;DHT22;9708;53.114;9.388;2023-12-28T05:19:16;8.70;99.90
19152;DHT22;9708;53.114;9.388;2023-12-28T05:21:43;8.70;99.90
19152;DHT22;9708;53.114;9.388;2023-12-28T05:24:10;8.70;99.90
19152;DHT22;9708;53.114;9.388;2023-12-28T05:26:36;8.70;99.90
19152;DHT22;9708;53.114;9.388;2023-12-28T05:29:03;8.60;99.90
19152;DHT22;9708;53.114;9.388;2023-12-28T05:31:30;8.60;99.90
19152;DHT22;9708;53.114;9.388;2023-12-28T05:33:58;8.60;99.90
19152;DHT22;9708;53.114;9.388;2023-12-28T05:36:25;8.60;99.90
19152;DHT22;9708;53.114;9.388;2023-12-28T05:38:52;8.70;99.90
19152;DHT22;9708;53.114;9.388;2023-12-28T05:41:19;8.70;99.90
19152;DHT22;9708;53.114;9.388;2023-12-28T05:43:46;8.70;99.90
19152;DHT22;9708;53.114;9.388;2023-12-28T05:46:13;8.80;99.90
19152;DHT22;9708;53.114;9.388;2023-12-28T05:48:40;8.70;99.90
19152;DHT22;9708;53.114;9.388;2023-12-28T05:51:08;8.80;99.90
19152;DHT22;9708;53.114;9.388;2023-12-28T05:53:35;8.70;99.90
19152;DHT22;9708;53.114;9.388;2023-12-28T05:56:02;8.60;99.90
19152;DHT22;9708;53.114;9.388;2023-12-28T05:58:29;8.60;99.90
19152;DHT22;9708;53.114;9.388;2023-12-28T06:00:56;8.70;99.90
19152;DHT22;9708;53.114;9.388;2023-12-28T06:03:23;8.80;99.90
19152;DHT22;9708;53.114;9.388;2023-12-28T06:05:53;8.90;99.90
19152;DHT22;9708;53.114;9.388;2023-12-28T06:08:22;8.90;99.90
19152;DHT22;9708;53.114;9.388;2023-12-28T06:10:49;9.00;99.90
19152;DHT22;9708;53.114;9.388;2023-12-28T06:13:16;9.00;99.90
19152;DHT22;9708;53.114;9.388;2023-12-28T06:15:43;9.10;99.90
19152;DHT22;9708;53.114;9.388;2023-12-28T06:18:10;9.00;99.90
19152;DHT22;9708;53.114;9.388;2023-12-28T06:20:37;8.90;99.90
19152;DHT22;9708;53.114;9.388;2023-12-28T06:23:06;8.90;99.90
19152;DHT22;9708;53.114;9.388;2023-12-28T06:25:34;9.00;99.90
19152;DHT22;9708;53.114;9.388;2023-12-28T06:28:01;9.00;99.90
19152;DHT22;9708;53.114;9.388;2023-12-28T06:30:28;9.00;99.90
19152;DHT22;9708;53.114;9.388;2023-12-28T06:32:55;9.00;99.90
19152;DHT22;9708;53.114;9.388;2023-12-28T06:35:22;9.10;99.90
19152;DHT22;9708;53.114;9.388;2023-12-28T06:37:49;9.10;99.90
19152;DHT22;9708;53.114;9.388;2023-12-28T06:40:16;9.10;99.90
19152;DHT22;9708;53.114;9.388;2023-12-28T06:42:44;9.20;99.90
19152;DHT22;9708;53.114;9.388;2023-12-28T06:45:11;9.10;99.90
19152;DHT22;9708;53.114;9.388;2023-12-28T06:47:38;9.20;99.90
19152;DHT22;9708;53.114;9.388;2023-12-28T06:50:06;9.30;99.90
19152;DHT22;9708;53.114;9.388;2023-12-28T06:52:33;9.40;99.90
19152;DHT22;9708;53.114;9.388;2023-12-28T06:54:59;9.40;99.90
19152;DHT22;9708;53.114;9.388;2023-12-28T06:57:26;9.40;99.90
19152;DHT22;9708;53.114;9.388;2023-12-28T06:59:55;9.40;99.90
19152;DHT22;9708;53.114;9.388;2023-12-28T07:02:23;9.40;99.90
19152;DHT22;9708;53.114;9.388;2023-12-28T07:04:50;9.60;99.90
19152;DHT22;9708;53.114;9.388;2023-12-28T07:07:17;9.60;99.90
19152;DHT22;9708;53.114;9.388;2023-12-28T07:09:44;9.60;99.90
19152;DHT22;9708;53.114;9.388;2023-12-28T07:12:11;9.60;99.90
19152;DHT22;9708;53.114;9.388;2023-12-28T07:14:38;9.60;99.90
19152;DHT22;9708;53.114;9.388;2023-12-28T07:17:06;9.60;99.90
19152;DHT22;9708;53.114;9.388;2023-12-28T07:19:33;9.70;99.90
19152;DHT22;9708;53.114;9.388;2023-12-28T07:22:00;9.70;99.90
19152;DHT22;9708;53.114;9.388;2023-12-28T07:24:27;9.80;99.90
19152;DHT22;9708;53.114;9.388;2023-12-28T07:26:53;9.80;99.90
19152;DHT22;9708;53.114;9.388;2023-12-28T07:29:20;9.80;99.90
19152;DHT22;9708;53.114;9.388;2023-12-28T07:31:47;9.80;99.90
19152;DHT22;9708;53.114;9.388;2023-12-28T07:34:15;9.80;99.90
19152;DHT22;9708;53.114;9.388;2023-12-28T07:36:42;9.80;99.90
19152;DHT22;9708;53.114;9.388;2023-12-28T07:39:09;9.80;99.90
19152;DHT22;9708;53.114;9.388;2023-12-28T07:41:36;9.90;99.90
19152;DHT22;9708;53.114;9.388;2023-12-28T07:44:03;9.90;99.90
19152;DHT22;9708;53.114;9.388;2023-12-28T07:46:30;9.90;99.90
19152;DHT22;9708;53.114;9.388;2023-12-28T07:48:57;9.90;99.90
19152;DHT22;9708;53.114;9.388;2023-12-28T07:51:25;9.90;99.90
19152;DHT22;9708;53.114;9.388;2023-12-28T07:53:52;9.90;99.90
19152;DHT22;9708;53.114;9.388;2023-12-28T07:56:19;9.90;99.90
19152;DHT22;9708;53.114;9.388;2023-12-28T07:58:46;10.00;99.90
19152;DHT22;9708;53.114;9.388;2023-12-28T08:01:13;10.00;99.90
19152;DHT22;9708;53.114;9.388;2023-12-28T08:03:39;10.00;99.90
19152;DHT22;9708;53.114;9.388;2023-12-28T08:06:06;10.00;99.90
19152;DHT22;9708;53.114;9.388;2023-12-28T08:08:34;10.00;99.90
19152;DHT22;9708;53.114;9.388;2023-12-28T08:11:03;10.10;99.90
19152;DHT22;9708;53.114;9.388;2023-12-28T08:13:30;10.00;99.90
19152;DHT22;9708;53.114;9.388;2023-12-28T08:15:56;10.10;99.90
19152;DHT22;9708;53.114;9.388;2023-12-28T08:18:23;10.10;99.90
19152;DHT22;9708;53.114;9.388;2023-12-28T08:20:50;10.10;99.90
19152;DHT22;9708;53.114;9.388;2023-12-28T08:23:17;10.10;99.90
19152;DHT22;9708;53.114;9.388;2023-12-28T08:25:46;10.20;99.90
19152;DHT22;9708;53.114;9.388;2023-12-28T08:28:13;10.20;99.90
19152;DHT22;9708;53.114;9.388;2023-12-28T08:30:40;10.20;99.90
19152;DHT22;9708;53.114;9.388;2023-12-28T08:33:07;10.20;99.90
19152;DHT22;9708;53.114;9.388;2023-12-28T08:35:34;10.20;99.90
19152;DHT22;9708;53.114;9.388;2023-12-28T08:38:01;10.30;99.90
19152;DHT22;9708;53.114;9.388;2023-12-28T08:40:28;10.30;99.90
19152;DHT22;9708;53.114;9.388;2023-12-28T08:42:56;10.20;99.90
19152;DHT22;9708;53.114;9.388;2023-12-28T08:45:23;10.30;99.90
19152;DHT22;9708;53.114;9.388;2023-12-28T08:47:50;10.30;99.90
19152;DHT22;9708;53.114;9.388;2023-12-28T08:50:17;10.30;99.90
19152;DHT22;9708;53.114;9.388;2023-12-28T08:52:44;10.40;99.90
19152;DHT22;9708;53.114;9.388;2023-12-28T08:55:11;10.40;99.90
19152;DHT22;9708;53.114;9.388;2023-12-28T08:57:37;10.40;99.90
19152;DHT22;9708;53.114;9.388;2023-12-28T09:00:07;10.50;99.90
19152;DHT22;9708;53.114;9.388;2023-12-28T09:02:35;10.50;99.90
19152;DHT22;9708;53.114;9.388;2023-12-28T09:05:02;10.50;99.90
19152;DHT22;9708;53.114;9.388;2023-12-28T09:07:29;10.60;99.90
19152;DHT22;9708;53.114;9.388;2023-12-28T09:09:56;10.80;99.90
19152;DHT22;9708;53.114;9.388;2023-12-28T09:12:22;10.90;99.90
19152;DHT22;9708;53.114;9.388;2023-12-28T09:14:49;10.90;99.90
19152;DHT22;9708;53.114;9.388;2023-12-28T09:17:21;10.90;99.90
19152;DHT22;9708;53.114;9.388;2023-12-28T09:19:48;10.80;99.90
19152;DHT22;9708;53.114;9.388;2023-12-28T09:22:15;10.80;99.90
19152;DHT22;9708;53.114;9.388;2023-12-28T09:24:41;10.90;99.90
19152;DHT22;9708;53.114;9.388;2023-12-28T09:27:08;10.90;99.90
19152;DHT22;9708;53.114;9.388;2023-12-28T09:29:35;10.90;99.90
19152;DHT22;9708;53.114;9.388;2023-12-28T09:32:02;10.90;99.90
19152;DHT22;9708;53.114;9.388;2023-12-28T09:34:31;11.00;99.90
19152;DHT22;9708;53.114;9.388;2023-12-28T09:36:57;11.10;99.90
19152;DHT22;9708;53.114;9.388;2023-12-28T09:39:24;11.20;99.90
19152;DHT22;9708;53.114;9.388;2023-12-28T09:41:55;11.30;99.90
19152;DHT22;9708;53.114;9.388;2023-12-28T09:44:22;11.40;99.90
19152;DHT22;9708;53.114;9.388;2023-12-28T09:46:50;11.50;99.90
19152;DHT22;9708;53.114;9.388;2023-12-28T09:49:20;11.40;99.90
19152;DHT22;9708;53.114;9.388;2023-12-28T09:51:48;11.40;99.90
19152;DHT22;9708;53.114;9.388;2023-12-28T09:54:15;11.40;99.90
19152;DHT22;9708;53.114;9.388;2023-12-28T09:56:44;11.50;99.90
19152;DHT22;9708;53.114;9.388;2023-12-28T09:59:11;11.40;99.90
19152;DHT22;9708;53.114;9.388;2023-12-28T10:01:40;11.40;99.90
19152;DHT22;9708;53.114;9.388;2023-12-28T10:04:08;11.60;99.90
19152;DHT22;9708;53.114;9.388;2023-12-28T10:06:35;11.70;99.90
19152;DHT22;9708;53.114;9.388;2023-12-28T10:09:03;11.70;99.90
19152;DHT22;9708;53.114;9.388;2023-12-28T10:11:33;11.70;99.90
19152;DHT22;9708;53.114;9.388;2023-12-28T10:14:00;11.90;99.90
19152;DHT22;9708;53.114;9.388;2023-12-28T10:16:27;11.90;99.90
19152;DHT22;9708;53.114;9.388;2023-12-28T10:18:55;11.80;99.90
19152;DHT22;9708;53.114;9.388;2023-12-28T10:21:23;11.70;99.90
19152;DHT22;9708;53.114;9.388;2023-12-28T10:23:50;11.70;99.90
19152;DHT22;9708;53.114;9.388;2023-12-28T10:26:19;11.50;99.90
19152;DHT22;9708;53.114;9.388;2023-12-28T10:28:47;11.50;99.90
19152;DHT22;9708;53.114;9.388;2023-12-28T10:31:15;11.50;99.90
19152;DHT22;9708;53.114;9.388;2023-12-28T10:33:42;11.50;99.90
19152;DHT22;9708;53.114;9.388;2023-12-28T10:36:12;11.40;99.90
19152;DHT22;9708;53.114;9.388;2023-12-28T10:38:41;11.40;99.90
19152;DHT22;9708;53.114;9.388;2023-12-28T10:41:10;11.40;99.90
19152;DHT22;9708;53.114;9.388;2023-12-28T10:43:45;11.40;99.90
19152;DHT22;9708;53.114;9.388;2023-12-28T10:46:19;11.50;99.90
19152;DHT22;9708;53.114;9.388;2023-12-28T10:48:49;11.50;99.90
19152;DHT22;9708;53.114;9.388;2023-12-28T10:51:20;11.40;99.90
19152;DHT22;9708;53.114;9.388;2023-12-28T10:53:56;11.50;99.90
19152;DHT22;9708;53.114;9.388;2023-12-28T10:56:33;11.40;99.90
19152;DHT22;9708;53.114;9.388;2023-12-28T10:59:09;11.40;99.90
19152;DHT22;9708;53.114;9.388;2023-12-28T11:01:41;11.40;99.90
19152;DHT22;9708;53.114;9.388;2023-12-28T11:04:16;11.40;99.90
19152;DHT22;9708;53.114;9.388;2023-12-28T11:06:46;11.40;99.90
19152;DHT22;9708;53.114;9.388;2023-12-28T11:09:15;11.30;99.90
19152;DHT22;9708;53.114;9.388;2023-12-28T11:11:43;11.30;99.90
19152;DHT22;9708;53.114;9.388;2023-12-28T11:14:12;11.30;99.90
19152;DHT22;9708;53.114;9.388;2023-12-28T11:16:40;11.40;99.90
19152;DHT22;9708;53.114;9.388;2023-12-28T11:19:08;11.30;99.90
19152;DHT22;9708;53.114;9.388;2023-12-28T11:21:36;11.30;99.90
19152;DHT22;9708;53.114;9.388;2023-12-28T11:24:04;11.40;99.90
19152;DHT22;9708;53.114;9.388;2023-12-28T11:26:32;11.40;99.90
19152;DHT22;9708;53.114;9.388;2023-12-28T11:29:02;11.40;99.90
19152;DHT22;9708;53.114;9.388;2023-12-28T11:31:32;11.50;99.90
19152;DHT22;9708;53.114;9.388;2023-12-28T11:34:00;11.60;99.90
19152;DHT22;9708;53.114;9.388;2023-12-28T11:36:33;11.70;99.90
19152;DHT22;9708;53.114;9.388;2023-12-28T11:39:02;11.70;99.90
19152;DHT22;9708;53.114;9.388;2023-12-28T11:41:32;11.70;99.90
19152;DHT22;9708;53.114;9.388;2023-12-28T11:44:02;11.60;99.90
19152;DHT22;9708;53.114;9.388;2023-12-28T11:46:32;11.60;99.90
19152;DHT22;9708;53.114;9.388;2023-12-28T11:49:05;11.70;99.90
19152;DHT22;9708;53.114;9.388;2023-12-28T11:51:34;11.80;99.90
19152;DHT22;9708;53.114;9.388;2023-12-28T11:54:03;11.90;99.90
19152;DHT22;9708;53.114;9.388;2023-12-28T11:56:30;11.80;99.90
19152;DHT22;9708;53.114;9.388;2023-12-28T11:58:58;11.70;99.90
19152;DHT22;9708;53.114;9.388;2023-12-28T12:01:24;11.70;99.90
19152;DHT22;9708;53.114;9.388;2023-12-28T12:03:53;11.70;99.90
19152;DHT22;9708;53.114;9.388;2023-12-28T12:06:20;11.60;99.90
19152;DHT22;9708;53.114;9.388;2023-12-28T12:08:47;11.60;99.90
19152;DHT22;9708;53.114;9.388;2023-12-28T12:11:17;11.60;99.90
19152;DHT22;9708;53.114;9.388;2023-12-28T12:13:44;11.50;99.90
19152;DHT22;9708;53.114;9.388;2023-12-28T12:16:13;11.50;99.90
19152;DHT22;9708;53.114;9.388;2023-12-28T12:18:41;11.40;99.90
19152;DHT22;9708;53.114;9.388;2023-12-28T12:21:09;11.40;99.90
19152;DHT22;9708;53.114;9.388;2023-12-28T12:23:37;11.40;99.90
19152;DHT22;9708;53.114;9.388;2023-12-28T12:26:05;11.30;99.90
19152;DHT22;9708;53.114;9.388;2023-12-28T12:28:32;11.30;99.90
19152;DHT22;9708;53.114;9.388;2023-12-28T12:31:00;11.30;99.90
19152;DHT22;9708;53.114;9.388;2023-12-28T12:33:28;11.20;99.90
19152;DHT22;9708;53.114;9.388;2023-12-28T12:35:55;11.30;99.90
19152;DHT22;9708;53.114;9.388;2023-12-28T12:38:23;11.30;99.90
19152;DHT22;9708;53.114;9.388;2023-12-28T12:40:51;11.30;99.90
19152;DHT22;9708;53.114;9.388;2023-12-28T12:43:18;11.40;99.90
19152;DHT22;9708;53.114;9.388;2023-12-28T12:45:46;11.40;99.90
19152;DHT22;9708;53.114;9.388;2023-12-28T12:48:13;11.30;99.90
19152;DHT22;9708;53.114;9.388;2023-12-28T12:50:40;11.40;99.90
19152;DHT22;9708;53.114;9.388;2023-12-28T12:53:06;11.40;99.90
19152;DHT22;9708;53.114;9.388;2023-12-28T12:55:36;11.40;99.90
19152;DHT22;9708;53.114;9.388;2023-12-28T12:58:04;11.30;99.90
19152;DHT22;9708;53.114;9.388;2023-12-28T13:00:32;11.30;99.90
19152;DHT22;9708;53.114;9.388;2023-12-28T13:02:59;11.20;99.90
19152;DHT22;9708;53.114;9.388;2023-12-28T13:05:26;11.30;99.90
19152;DHT22;9708;53.114;9.388;2023-12-28T13:07:53;11.20;99.90
19152;DHT22;9708;53.114;9.388;2023-12-28T13:10:20;11.20;99.90
19152;DHT22;9708;53.114;9.388;2023-12-28T13:12:48;11.20;99.90
19152;DHT22;9708;53.114;9.388;2023-12-28T13:15:15;11.20;99.90
19152;DHT22;9708;53.114;9.388;2023-12-28T13:17:42;11.10;99.90
19152;DHT22;9708;53.114;9.388;2023-12-28T13:20:10;11.20;99.90
19152;DHT22;9708;53.114;9.388;2023-12-28T13:22:37;11.10;99.90
19152;DHT22;9708;53.114;9.388;2023-12-28T13:25:04;11.10;99.90
19152;DHT22;9708;53.114;9.388;2023-12-28T13:27:31;11.10;99.90
19152;DHT22;9708;53.114;9.388;2023-12-28T13:30:00;11.10;99.90
19152;DHT22;9708;53.114;9.388;2023-12-28T13:32:27;11.10;99.90
19152;DHT22;9708;53.114;9.388;2023-12-28T13:34:54;11.10;99.90
19152;DHT22;9708;53.114;9.388;2023-12-28T13:37:21;11.10;99.90
19152;DHT22;9708;53.114;9.388;2023-12-28T13:39:48;11.10;99.90
19152;DHT22;9708;53.114;9.388;2023-12-28T13:42:15;11.10;99.90
19152;DHT22;9708;53.114;9.388;2023-12-28T13:44:42;11.10;99.90
19152;DHT22;9708;53.114;9.388;2023-12-28T13:47:10;11.10;99.90
19152;DHT22;9708;53.114;9.388;2023-12-28T13:49:37;11.10;99.90
19152;DHT22;9708;53.114;9.388;2023-12-28T13:52:05;11.10;99.90
19152;DHT22;9708;53.114;9.388;2023-12-28T13:54:31;11.10;99.90
19152;DHT22;9708;53.114;9.388;2023-12-28T13:56:58;11.10;99.90
19152;DHT22;9708;53.114;9.388;2023-12-28T13:59:26;11.10;99.90
19152;DHT22;9708;53.114;9.388;2023-12-28T14:01:52;11.10;99.90
19152;DHT22;9708;53.114;9.388;2023-12-28T14:04:21;11.00;99.90
19152;DHT22;9708;53.114;9.388;2023-12-28T14:06:48;11.00;99.90
19152;DHT22;9708;53.114;9.388;2023-12-28T14:09:14;11.00;99.90
19152;DHT22;9708;53.114;9.388;2023-12-28T14:11:45;11.00;99.90
19152;DHT22;9708;53.114;9.388;2023-12-28T14:14:12;11.00;99.90
19152;DHT22;9708;53.114;9.388;2023-12-28T14:16:39;10.90;99.90
19152;DHT22;9708;53.114;9.388;2023-12-28T14:19:06;10.90;99.90
19152;DHT22;9708;53.114;9.388;2023-12-28T14:21:36;10.90;99.90
19152;DHT22;9708;53.114;9.388;2023-12-28T14:24:04;11.00;99.90
19152;DHT22;9708;53.114;9.388;2023-12-28T14:26:32;11.00;99.90
19152;DHT22;9708;53.114;9.388;2023-12-28T14:29:00;10.90;99.90
19152;DHT22;9708;53.114;9.388;2023-12-28T14:31:30;10.90;99.90
19152;DHT22;9708;53.114;9.388;2023-12-28T14:33:57;10.90;99.90
19152;DHT22;9708;53.114;9.388;2023-12-28T14:36:27;10.90;99.90
19152;DHT22;9708;53.114;9.388;2023-12-28T14:38:58;10.90;99.90
19152;DHT22;9708;53.114;9.388;2023-12-28T14:41:25;10.90;99.90
19152;DHT22;9708;53.114;9.388;2023-12-28T14:43:53;10.90;99.90
19152;DHT22;9708;53.114;9.388;2023-12-28T14:46:20;10.90;99.90
19152;DHT22;9708;53.114;9.388;2023-12-28T14:48:46;10.90;99.90
19152;DHT22;9708;53.114;9.388;2023-12-28T14:51:14;10.90;99.90
19152;DHT22;9708;53.114;9.388;2023-12-28T14:53:40;10.90;99.90
19152;DHT22;9708;53.114;9.388;2023-12-28T14:56:09;10.80;99.90
19152;DHT22;9708;53.114;9.388;2023-12-28T14:58:36;10.90;99.90
19152;DHT22;9708;53.114;9.388;2023-12-28T15:01:03;10.80;99.90
19152;DHT22;9708;53.114;9.388;2023-12-28T15:03:30;10.70;99.90
19152;DHT22;9708;53.114;9.388;2023-12-28T15:05:57;10.70;99.90
19152;DHT22;9708;53.114;9.388;2023-12-28T15:08:25;10.70;99.90
19152;DHT22;9708;53.114;9.388;2023-12-28T15:10:52;10.70;99.90
19152;DHT22;9708;53.114;9.388;2023-12-28T15:13:21;10.70;99.90
19152;DHT22;9708;53.114;9.388;2023-12-28T15:15:49;10.70;99.90
19152;DHT22;9708;53.114;9.388;2023-12-28T15:18:16;10.60;99.90
19152;DHT22;9708;53.114;9.388;2023-12-28T15:20:44;10.70;99.90
19152;DHT22;9708;53.114;9.388;2023-12-28T15:23:11;10.60;99.90
19152;DHT22;9708;53.114;9.388;2023-12-28T15:25:39;10.60;99.90
19152;DHT22;9708;53.114;9.388;2023-12-28T15:28:06;10.70;99.90
19152;DHT22;9708;53.114;9.388;2023-12-28T15:30:34;10.70;99.90
19152;DHT22;9708;53.114;9.388;2023-12-28T15:33:02;10.70;99.90
19152;DHT22;9708;53.114;9.388;2023-12-28T15:35:29;10.70;99.90
19152;DHT22;9708;53.114;9.388;2023-12-28T15:37:55;10.70;99.90
19152;DHT22;9708;53.114;9.388;2023-12-28T15:40:22;10.70;99.90
19152;DHT22;9708;53.114;9.388;2023-12-28T15:42:50;10.70;99.90
19152;DHT22;9708;53.114;9.388;2023-12-28T15:45:16;10.80;99.90
19152;DHT22;9708;53.114;9.388;2023-12-28T15:47:45;10.80;99.90
19152;DHT22;9708;53.114;9.388;2023-12-28T15:50:12;10.70;99.90
19152;DHT22;9708;53.114;9.388;2023-12-28T15:52:39;10.70;99.90
19152;DHT22;9708;53.114;9.388;2023-12-28T15:55:07;10.70;99.90
19152;DHT22;9708;53.114;9.388;2023-12-28T15:57:34;10.70;99.90
19152;DHT22;9708;53.114;9.388;2023-12-28T16:00:01;10.70;99.90